Time;durP1;ratioP1;P1;durP2;ratioP2;P2;SDS_P1;SDS_P2;PMS_P1;PMS_P2;Temp;Humidity;BMP_temperature;BMP_pressure;BME280_temperature;BME280_humidity;BME280_pressure;Samples;Min_cycle;Max_cycle;Signal;HPM_P1;HPM_P2
2022/01/01 09:01:14;;;;;;;;;;;;;;;13.81;99.62;99313.03;5936475;23;19971;31
2022/01/01 09:03:44;;;;;;;;;;;;;;;13.15;100.00;99313.47;4822807;29;19967;-67
2022/01/01 09:06:11;;;;;;;;;;;;;;;13.08;100.00;99313.44;4830481;29;19959;-67
2022/01/01 09:08:40;;;;;;;;;;;;;;;12.44;100.00;99315.66;4825309;29;19969;-67
2022/01/01 09:11:08;;;;;;;;;;;;;;;11.68;100.00;99322.78;4824566;29;19953;-67
2022/01/01 09:13:41;;;;;;;;;;;;;;;11.63;100.00;99319.47;4822418;29;19953;-67
2022/01/01 09:16:12;;;;;;;;;;;;;;;10.89;100.00;99330.38;4838478;29;19960;-67
2022/01/01 09:18:40;;;;;;;;;;;;;;;11.00;100.00;99327.75;4813707;29;19954;-67
2022/01/01 09:21:07;;;;;;;;;;;;;;;11.01;100.00;99334.94;4820357;29;19955;-67
2022/01/01 09:23:35;;;;;;;;;;;;;;;10.83;100.00;99333.88;4824299;29;19956;-69
2022/01/01 09:26:02;;;;;;;;;;;;;;;10.62;100.00;99334.31;4824551;29;19961;-68
2022/01/01 09:28:31;;;;;;;;;;;;;;;10.18;100.00;99342.28;4834362;29;19977;-69
2022/01/01 09:30:59;;;;;;;;;;;;;;;10.27;100.00;99342.06;4828334;29;20263;-69
2022/01/01 09:33:29;;;;;;;;;;;;;;;9.91;100.00;99340.50;4827692;29;19962;-69
2022/01/01 09:35:57;;;;;;;;;;;;;;;10.14;100.00;99332.22;4833894;29;19959;-69
2022/01/01 09:38:25;;;;;;;;;;;;;;;10.38;100.00;99340.25;4839529;29;19982;-69
2022/01/01 09:40:54;;;;;;;;;;;;;;;10.29;100.00;99345.28;4829200;29;19959;-69
2022/01/01 09:43:22;;;;;;;;;;;;;;;10.49;100.00;99344.03;4827913;29;19952;-69
2022/01/01 09:45:50;;;;;;;;;;;;;;;10.55;100.00;99343.38;4825271;29;19962;-69
2022/01/01 09:48:19;;;;;;;;;;;;;;;10.51;100.00;99350.09;4827846;29;19970;-69
2022/01/01 09:50:49;;;;;;;;;;;;;;;10.70;100.00;99349.22;4835122;29;19950;-69
2022/01/01 09:53:18;;;;;;;;;;;;;;;10.93;100.00;99353.59;4824870;29;19957;-70
2022/01/01 09:55:45;;;;;;;;;;;;;;;10.82;100.00;99360.22;4826622;29;20360;-69
2022/01/01 09:58:13;;;;;;;;;;;;;;;11.20;100.00;99349.66;4821687;29;19966;-69
2022/01/01 10:00:40;;;;;;;;;;;;;;;11.34;100.00;99359.47;4828165;29;19956;-69
2022/01/01 10:03:12;;;;;;;;;;;;;;;10.85;100.00;99359.47;4827590;29;19976;-69
2022/01/01 10:05:58;;;;;;;;;;;;;;;10.94;100.00;99348.81;4826384;29;19950;-70
2022/01/01 10:08:26;;;;;;;;;;;;;;;11.19;100.00;99358.44;4826462;29;19977;-71
2022/01/01 10:10:54;;;;;;;;;;;;;;;11.41;100.00;99353.97;4826267;29;19960;-67
2022/01/01 10:13:39;;;;;;;;;;;;;;;11.12;100.00;99359.16;4827049;29;19966;-69
2022/01/01 10:16:08;;;;;;;;;;;;;;;11.50;100.00;99358.09;4832727;29;19958;-70
2022/01/01 10:18:39;;;;;;;;;;;;;;;11.88;100.00;99363.44;4826551;29;20335;-70
2022/01/01 10:21:14;;;;;;;;;;;;;;;12.06;100.00;99366.50;4825613;29;20476;-70
2022/01/01 10:23:45;;;;;;;;;;;;;;;12.22;100.00;99357.88;4826767;29;19959;-70
2022/01/01 10:29:07;;;;;;;;;;;;;;;12.30;100.00;99357.56;4822473;29;19967;-66
2022/01/01 10:31:34;;;;;;;;;;;;;;;12.53;100.00;99354.59;4828809;29;19962;-69
2022/01/01 10:34:09;;;;;;;;;;;;;;;12.41;100.00;99349.25;4829192;29;19963;-69
2022/01/01 10:36:36;;;;;;;;;;;;;;;12.77;100.00;99347.59;4826939;29;19953;-69
2022/01/01 10:39:08;;;;;;;;;;;;;;;12.49;100.00;99348.94;4832189;29;19958;-69
2022/01/01 10:41:55;;;;;;;;;;;;;;;12.32;100.00;99349.56;4825733;29;19949;-68
2022/01/01 10:44:26;;;;;;;;;;;;;;;12.41;100.00;99338.84;4811565;29;20410;-69
2022/01/01 10:46:53;;;;;;;;;;;;;;;12.63;100.00;99339.88;4830409;29;20262;-69
2022/01/01 10:49:35;;;;;;;;;;;;;;;12.69;100.00;99343.16;4824828;29;19970;-69
2022/01/01 10:52:23;;;;;;;;;;;;;;;12.81;100.00;99334.44;4825978;29;19957;-69
2022/01/01 10:54:51;;;;;;;;;;;;;;;12.62;100.00;99332.63;4826877;29;19959;-67
2022/01/01 10:57:25;;;;;;;;;;;;;;;12.68;100.00;99333.09;4827831;29;19952;-67
2022/01/01 11:00:22;;;;;;;;;;;;;;;12.87;100.00;99339.28;4825990;29;20561;-69
2022/01/01 11:02:51;;;;;;;;;;;;;;;12.78;100.00;99338.00;4817957;29;19996;-69
2022/01/01 11:05:26;;;;;;;;;;;;;;;12.98;100.00;99322.53;4822080;29;19953;-68
2022/01/01 11:07:53;;;;;;;;;;;;;;;12.97;100.00;99321.72;4836662;29;20235;-70
2022/01/01 11:10:21;;;;;;;;;;;;;;;13.00;100.00;99329.38;4829637;29;19972;-70
2022/01/01 11:12:49;;;;;;;;;;;;;;;12.77;100.00;99325.16;4827311;29;19950;-69
2022/01/01 11:15:17;;;;;;;;;;;;;;;12.51;100.00;99315.72;4809341;29;20360;-69
2022/01/01 11:17:46;;;;;;;;;;;;;;;12.62;100.00;99321.41;4843620;29;19967;-69
2022/01/01 11:20:14;;;;;;;;;;;;;;;12.66;100.00;99319.47;4829056;29;19950;-69
2022/01/01 11:22:45;;;;;;;;;;;;;;;12.29;100.00;99313.06;4844478;29;20554;-67
2022/01/01 11:25:12;;;;;;;;;;;;;;;12.03;100.00;99313.97;4843107;29;19945;-68
2022/01/01 11:27:40;;;;;;;;;;;;;;;11.88;100.00;99309.41;4828195;29;19949;-69
2022/01/01 11:30:08;;;;;;;;;;;;;;;12.08;100.00;99310.84;4823588;29;19972;-69
2022/01/01 11:32:45;;;;;;;;;;;;;;;11.98;100.00;99313.53;4821757;29;19955;-66
2022/01/01 11:35:17;;;;;;;;;;;;;;;11.62;100.00;99307.44;4821935;29;20372;-68
2022/01/01 11:37:59;;;;;;;;;;;;;;;11.81;100.00;99312.91;4823092;29;19958;-68
2022/01/01 11:40:28;;;;;;;;;;;;;;;11.68;100.00;99307.97;4823717;29;19967;-68
2022/01/01 11:42:56;;;;;;;;;;;;;;;11.49;100.00;99306.06;4824305;29;20434;-68
2022/01/01 11:45:44;;;;;;;;;;;;;;;11.46;100.00;99312.44;4809122;29;19951;-69
2022/01/01 11:48:30;;;;;;;;;;;;;;;11.24;100.00;99304.94;4828996;29;19953;-68
2022/01/01 11:51:18;;;;;;;;;;;;;;;11.29;100.00;99292.59;4834796;29;19968;-68
2022/01/01 11:54:05;;;;;;;;;;;;;;;11.23;100.00;99303.28;4820067;29;20367;-67
2022/01/01 11:56:50;;;;;;;;;;;;;;;11.34;100.00;99297.88;4829613;29;19953;-69
2022/01/01 11:59:20;;;;;;;;;;;;;;;11.49;100.00;99291.28;4835427;29;19977;-68
2022/01/01 12:01:49;;;;;;;;;;;;;;;11.57;100.00;99299.38;4824961;29;19974;-68
2022/01/01 12:04:25;;;;;;;;;;;;;;;11.55;100.00;99295.34;4824945;29;19965;-68
2022/01/01 12:07:18;;;;;;;;;;;;;;;11.56;100.00;99289.38;4820076;29;19967;-68
2022/01/01 12:10:08;;;;;;;;;;;;;;;11.50;100.00;99290.88;4808113;29;20355;-69
2022/01/01 12:12:39;;;;;;;;;;;;;;;11.53;100.00;99284.53;4821880;29;20304;-68
2022/01/01 12:15:08;;;;;;;;;;;;;;;11.44;100.00;99283.19;4824222;29;20352;-69
2022/01/01 12:17:39;;;;;;;;;;;;;;;11.44;100.00;99272.81;4824769;29;19968;-69
2022/01/01 12:20:09;;;;;;;;;;;;;;;11.20;100.00;99270.44;4821873;29;19977;-69
2022/01/01 12:22:37;;;;;;;;;;;;;;;11.34;100.00;99278.25;4824315;29;19952;-68
2022/01/01 12:25:06;;;;;;;;;;;;;;;11.39;100.00;99277.94;4824511;29;20271;-70
2022/01/01 12:27:47;;;;;;;;;;;;;;;11.49;100.00;99269.66;4821426;29;19957;-67
2022/01/01 12:30:15;;;;;;;;;;;;;;;11.14;100.00;99267.19;4810420;29;19952;-67
2022/01/01 12:32:44;;;;;;;;;;;;;;;11.28;100.00;99262.97;4821048;29;19952;-67
2022/01/01 12:35:16;;;;;;;;;;;;;;;11.22;100.00;99266.09;4834663;29;19952;-67
2022/01/01 12:37:43;;;;;;;;;;;;;;;11.17;100.00;99258.03;4824113;29;19953;-65
2022/01/01 12:40:11;;;;;;;;;;;;;;;11.33;100.00;99254.22;4822821;29;19975;-66
2022/01/01 12:42:44;;;;;;;;;;;;;;;11.43;100.00;99259.16;4822847;29;19949;-66
2022/01/01 12:45:14;;;;;;;;;;;;;;;11.40;100.00;99254.31;4817417;29;20038;-66
2022/01/01 12:47:41;;;;;;;;;;;;;;;11.47;100.00;99251.63;4836860;29;19956;-65
2022/01/01 12:50:09;;;;;;;;;;;;;;;11.31;100.00;99259.41;4840230;29;19959;-66
2022/01/01 12:52:36;;;;;;;;;;;;;;;11.17;100.00;99252.41;4834765;29;19961;-64
2022/01/01 12:55:04;;;;;;;;;;;;;;;11.28;100.00;99248.97;4822889;29;19958;-66
2022/01/01 12:57:32;;;;;;;;;;;;;;;11.42;100.00;99249.94;4836891;29;19952;-66
2022/01/01 13:00:20;;;;;;;;;;;;;;;11.57;100.00;99250.94;4830573;29;19969;-66
2022/01/01 13:02:54;;;;;;;;;;;;;;;11.46;100.00;99247.22;4832907;29;20395;-66
2022/01/01 13:05:22;;;;;;;;;;;;;;;11.55;100.00;99236.50;4832321;29;20390;-67
2022/01/01 13:07:50;;;;;;;;;;;;;;;11.48;100.00;99237.25;4836244;29;19958;-67
2022/01/01 13:10:18;;;;;;;;;;;;;;;11.60;100.00;99241.78;4819093;29;19951;-66
2022/01/01 13:12:48;;;;;;;;;;;;;;;11.55;100.00;99231.72;4826317;29;19953;-67
2022/01/01 13:15:18;;;;;;;;;;;;;;;11.69;100.00;99226.31;4825301;29;19953;-65
2022/01/01 13:17:49;;;;;;;;;;;;;;;11.62;100.00;99225.38;4823460;29;19954;-66
2022/01/01 13:20:17;;;;;;;;;;;;;;;11.48;100.00;99223.25;4825063;29;19986;-66
2022/01/01 13:22:44;;;;;;;;;;;;;;;11.45;100.00;99218.41;4823943;29;19956;-66
2022/01/01 13:25:11;;;;;;;;;;;;;;;11.60;100.00;99219.38;4830062;29;19958;-66
2022/01/01 13:27:39;;;;;;;;;;;;;;;11.57;100.00;99217.31;4832097;29;20040;-66
2022/01/01 13:30:07;;;;;;;;;;;;;;;11.51;100.00;99213.28;4842764;29;19963;-66
2022/01/01 13:32:34;;;;;;;;;;;;;;;11.44;100.00;99216.00;4836917;29;19950;-66
2022/01/01 13:35:03;;;;;;;;;;;;;;;11.27;100.00;99211.78;4839203;29;20479;-66
2022/01/01 13:37:32;;;;;;;;;;;;;;;11.20;100.00;99214.47;4826652;29;19962;-66
2022/01/01 13:39:59;;;;;;;;;;;;;;;11.01;100.00;99217.41;4822911;29;19973;-66
2022/01/01 13:42:26;;;;;;;;;;;;;;;10.96;100.00;99209.34;4821769;29;19960;-66
2022/01/01 13:45:01;;;;;;;;;;;;;;;11.10;100.00;99210.34;4829075;29;19962;-66
2022/01/01 13:47:31;;;;;;;;;;;;;;;11.11;100.00;99216.75;4825014;29;19961;-66
2022/01/01 13:50:00;;;;;;;;;;;;;;;10.97;100.00;99220.16;4820608;29;19958;-67
2022/01/01 13:52:29;;;;;;;;;;;;;;;10.81;100.00;99210.34;4829466;29;19951;-66
2022/01/01 13:54:58;;;;;;;;;;;;;;;10.80;100.00;99203.94;4822762;29;19957;-66
2022/01/01 13:57:28;;;;;;;;;;;;;;;10.72;100.00;99199.41;4840164;29;19956;-67
2022/01/01 13:59:56;;;;;;;;;;;;;;;10.69;100.00;99204.94;4828047;29;19948;-67
2022/01/01 14:02:25;;;;;;;;;;;;;;;10.77;100.00;99199.09;4826271;29;19978;-67
2022/01/01 14:04:57;;;;;;;;;;;;;;;10.77;100.00;99198.28;4824417;29;19964;-67
2022/01/01 14:07:24;;;;;;;;;;;;;;;10.73;100.00;99201.03;4823393;29;19956;-68
2022/01/01 14:10:11;;;;;;;;;;;;;;;10.68;100.00;99195.75;4820014;29;19957;-68
2022/01/01 14:12:40;;;;;;;;;;;;;;;10.65;100.00;99202.09;4837269;29;19961;-68
2022/01/01 14:15:08;;;;;;;;;;;;;;;10.60;100.00;99198.81;4841482;29;19954;-68
2022/01/01 14:17:47;;;;;;;;;;;;;;;10.57;100.00;99206.78;4835281;29;19953;-68
2022/01/01 14:20:18;;;;;;;;;;;;;;;10.55;100.00;99205.53;4832012;29;20257;-68
2022/01/01 14:22:46;;;;;;;;;;;;;;;10.46;100.00;99211.41;4840416;29;19954;-68
2022/01/01 14:25:14;;;;;;;;;;;;;;;10.33;100.00;99217.56;4842300;29;19955;-68
2022/01/01 14:27:42;;;;;;;;;;;;;;;10.26;100.00;99209.06;4842678;29;19947;-68
2022/01/01 14:30:09;;;;;;;;;;;;;;;10.18;100.00;99204.50;4830327;29;19961;-68
2022/01/01 14:32:37;;;;;;;;;;;;;;;10.15;100.00;99210.88;4832566;29;19961;-68
2022/01/01 14:35:05;;;;;;;;;;;;;;;10.07;100.00;99203.50;4844696;29;20261;-68
2022/01/01 14:37:33;;;;;;;;;;;;;;;10.02;100.00;99207.41;4845895;29;19950;-68
2022/01/01 14:40:00;;;;;;;;;;;;;;;9.99;100.00;99207.34;4844618;29;19959;-68
2022/01/01 14:42:27;;;;;;;;;;;;;;;9.87;100.00;99222.31;4826848;29;19971;-68
2022/01/01 14:44:54;;;;;;;;;;;;;;;9.80;100.00;99217.41;4830166;29;19968;-68
2022/01/01 14:47:31;;;;;;;;;;;;;;;9.79;100.00;99218.56;4826515;29;20214;-68
2022/01/01 14:50:01;;;;;;;;;;;;;;;9.74;100.00;99223.63;4829089;29;19951;-68
2022/01/01 14:52:43;;;;;;;;;;;;;;;9.62;100.00;99212.63;4826294;29;20320;-68
2022/01/01 14:55:10;;;;;;;;;;;;;;;9.62;100.00;99218.22;4826334;29;19959;-68
2022/01/01 14:57:42;;;;;;;;;;;;;;;9.56;100.00;99219.72;4826225;29;19955;-68
2022/01/01 15:00:11;;;;;;;;;;;;;;;9.54;100.00;99214.47;4840446;29;19950;-68
2022/01/01 15:02:39;;;;;;;;;;;;;;;9.50;100.00;99219.19;4837994;29;19987;-68
2022/01/01 15:05:09;;;;;;;;;;;;;;;9.44;100.00;99205.91;4836139;29;19953;-68
2022/01/01 15:07:40;;;;;;;;;;;;;;;9.29;100.00;99215.97;4845338;29;19951;-68
2022/01/01 15:10:08;;;;;;;;;;;;;;;9.29;100.00;99212.38;4837530;29;19953;-68
2022/01/01 15:12:36;;;;;;;;;;;;;;;9.27;100.00;99207.13;4845348;29;20279;-68
2022/01/01 15:15:04;;;;;;;;;;;;;;;9.22;100.00;99211.03;4840816;29;19957;-68
2022/01/01 15:17:32;;;;;;;;;;;;;;;9.19;100.00;99216.56;4833025;29;19957;-68
2022/01/01 15:19:59;;;;;;;;;;;;;;;9.18;100.00;99214.94;4841330;29;19957;-68
2022/01/01 15:22:31;;;;;;;;;;;;;;;9.14;100.00;99211.28;4826701;29;19973;-67
2022/01/01 15:24:59;;;;;;;;;;;;;;;9.09;100.00;99212.38;4824279;29;19951;-68
2022/01/01 15:27:27;;;;;;;;;;;;;;;8.99;100.00;99214.91;4822452;29;19962;-68
2022/01/01 15:35:34;;;;;;;;;;;;;;;8.84;100.00;99210.19;4811581;29;19951;-68
2022/01/01 15:38:08;;;;;;;;;;;;;;;8.76;100.00;99213.97;4823375;29;19964;-68
2022/01/01 15:40:55;;;;;;;;;;;;;;;8.79;100.00;99214.06;4828837;29;19953;-68
2022/01/01 15:43:23;;;;;;;;;;;;;;;8.68;100.00;99210.22;4825208;29;19957;-68
2022/01/01 15:45:51;;;;;;;;;;;;;;;8.63;100.00;99209.72;4825892;29;19953;-67
2022/01/01 15:48:19;;;;;;;;;;;;;;;8.61;100.00;99210.06;4815435;29;19951;-70
2022/01/01 15:50:47;;;;;;;;;;;;;;;8.59;100.00;99216.00;4831093;29;19953;-69
2022/01/01 15:53:16;;;;;;;;;;;;;;;8.61;100.00;99212.84;4824768;29;19956;-69
2022/01/01 15:55:45;;;;;;;;;;;;;;;8.64;100.00;99214.09;4825311;29;19969;-69
2022/01/01 15:58:17;;;;;;;;;;;;;;;8.59;100.00;99216.00;4819493;29;19963;-69
2022/01/01 16:00:46;;;;;;;;;;;;;;;8.55;100.00;99222.69;4822396;29;20346;-69
2022/01/01 16:03:34;;;;;;;;;;;;;;;8.47;100.00;99223.66;4822415;29;19976;-69
2022/01/01 16:06:01;;;;;;;;;;;;;;;8.44;100.00;99222.41;4815884;29;19954;-69
2022/01/01 16:08:30;;;;;;;;;;;;;;;8.45;100.00;99215.69;4825264;29;19964;-69
2022/01/01 16:11:01;;;;;;;;;;;;;;;8.52;100.00;99218.63;4829374;29;20356;-68
2022/01/01 16:13:33;;;;;;;;;;;;;;;8.51;100.00;99225.38;4825260;29;20544;-68
2022/01/01 16:16:00;;;;;;;;;;;;;;;8.56;100.00;99218.69;4824589;29;19969;-68
2022/01/01 16:18:33;;;;;;;;;;;;;;;8.48;100.00;99219.72;4819413;29;20353;-68
2022/01/01 16:21:01;;;;;;;;;;;;;;;8.46;100.00;99214.50;4822403;29;19957;-68
2022/01/01 16:23:29;;;;;;;;;;;;;;;8.48;100.00;99220.53;4824349;29;19962;-68
2022/01/01 16:25:57;;;;;;;;;;;;;;;8.45;100.00;99210.09;4817607;29;20244;-68
2022/01/01 16:28:25;;;;;;;;;;;;;;;8.42;100.00;99218.38;4816446;29;19959;-68
2022/01/01 16:30:52;;;;;;;;;;;;;;;8.36;100.00;99217.03;4826904;29;20351;-68
2022/01/01 16:33:20;;;;;;;;;;;;;;;8.35;100.00;99224.59;4824657;29;19950;-68
2022/01/01 16:35:49;;;;;;;;;;;;;;;8.39;100.00;99225.47;4823337;29;19962;-73
2022/01/01 16:38:17;;;;;;;;;;;;;;;8.30;100.00;99218.47;4828354;29;19986;-70
2022/01/01 16:40:46;;;;;;;;;;;;;;;8.25;100.00;99222.31;4823871;29;19961;-70
2022/01/01 16:43:17;;;;;;;;;;;;;;;8.25;100.00;99218.72;4821773;29;19968;-67
2022/01/01 16:45:54;;;;;;;;;;;;;;;8.23;100.00;99221.88;4824448;29;19955;-67
2022/01/01 16:48:28;;;;;;;;;;;;;;;8.22;100.00;99225.81;4821088;29;19958;-68
2022/01/01 16:51:00;;;;;;;;;;;;;;;8.17;100.00;99223.28;4818564;29;20041;-70
2022/01/01 16:53:29;;;;;;;;;;;;;;;8.17;100.00;99226.06;4824061;29;20473;-69
2022/01/01 16:55:57;;;;;;;;;;;;;;;8.13;100.00;99225.19;4829733;29;19955;-68
2022/01/01 16:58:26;;;;;;;;;;;;;;;8.13;100.00;99225.19;4824815;29;19968;-69
2022/01/01 17:00:55;;;;;;;;;;;;;;;8.16;100.00;99230.03;4833918;29;19960;-70
2022/01/01 17:03:25;;;;;;;;;;;;;;;8.16;100.00;99230.03;4824862;29;19982;-69
2022/01/01 17:05:53;;;;;;;;;;;;;;;8.24;100.00;99237.41;4827954;29;19956;-69
2022/01/01 17:08:20;;;;;;;;;;;;;;;8.27;100.00;99236.72;4821625;29;19959;-68
2022/01/01 17:10:48;;;;;;;;;;;;;;;8.33;100.00;99240.03;4810965;29;19958;-68
2022/01/01 17:13:15;;;;;;;;;;;;;;;8.28;100.00;99248.69;4823748;29;19957;-69
2022/01/01 17:16:02;;;;;;;;;;;;;;;8.25;100.00;99252.97;4820707;29;19949;-69
2022/01/01 17:18:50;;;;;;;;;;;;;;;8.23;100.00;99254.47;4823458;29;20242;-70
2022/01/01 17:21:18;;;;;;;;;;;;;;;8.15;100.00;99253.50;4832586;29;19949;-70
2022/01/01 17:24:03;;;;;;;;;;;;;;;8.11;100.00;99258.16;4825524;29;19969;-69
2022/01/01 17:26:32;;;;;;;;;;;;;;;8.18;100.00;99261.13;4813947;29;19959;-68
2022/01/01 17:29:01;;;;;;;;;;;;;;;8.19;100.00;99265.53;4825484;29;19990;-69
2022/01/01 17:31:30;;;;;;;;;;;;;;;8.13;100.00;99261.41;4817138;29;19955;-69
2022/01/01 17:34:26;;;;;;;;;;;;;;;8.09;100.00;99268.06;4822494;29;19955;-69
2022/01/01 17:39:58;;;;;;;;;;;;;;;8.12;100.00;99268.13;4831144;29;19948;-69
2022/01/01 17:42:27;;;;;;;;;;;;;;;8.11;100.00;99272.09;4816590;29;19977;-69
2022/01/01 17:44:56;;;;;;;;;;;;;;;8.04;100.00;99280.28;4806724;29;19960;-68
2022/01/01 17:47:24;;;;;;;;;;;;;;;8.02;100.00;99276.22;4824824;29;20614;-69
2022/01/01 17:49:54;;;;;;;;;;;;;;;7.97;100.00;99277.28;4826204;29;19954;-69
2022/01/01 17:52:26;;;;;;;;;;;;;;;7.91;100.00;99268.38;4829536;29;19978;-68
2022/01/01 17:55:05;;;;;;;;;;;;;;;7.92;100.00;99272.00;4826979;29;19953;-68
2022/01/01 17:57:34;;;;;;;;;;;;;;;7.92;100.00;99283.13;4829406;29;20259;-68
2022/01/01 18:00:03;;;;;;;;;;;;;;;7.95;100.00;99282.38;4829479;29;19949;-69
2022/01/01 18:02:46;;;;;;;;;;;;;;;7.96;100.00;99284.03;4827353;29;19976;-68
2022/01/01 18:05:15;;;;;;;;;;;;;;;7.95;100.00;99282.38;4819086;29;19953;-68
2022/01/01 18:07:49;;;;;;;;;;;;;;;8.03;100.00;99286.19;4827682;29;19949;-68
2022/01/01 18:10:20;;;;;;;;;;;;;;;8.02;100.00;99287.38;4844680;29;19952;-68
2022/01/01 18:12:52;;;;;;;;;;;;;;;7.97;100.00;99278.09;4836502;29;20344;-68
2022/01/01 18:15:19;;;;;;;;;;;;;;;7.97;100.00;99288.44;4840561;29;19963;-68
2022/01/01 18:17:48;;;;;;;;;;;;;;;8.00;100.00;99290.47;4836063;29;19987;-68
2022/01/01 18:20:17;;;;;;;;;;;;;;;8.01;100.00;99300.47;4837119;29;19960;-68
2022/01/01 18:22:51;;;;;;;;;;;;;;;8.04;100.00;99290.59;4826689;29;19976;-68
2022/01/01 18:25:26;;;;;;;;;;;;;;;8.07;100.00;99296.25;4822622;29;19957;-68
2022/01/01 18:27:59;;;;;;;;;;;;;;;8.08;100.00;99294.28;4823223;29;19966;-68
2022/01/01 18:30:26;;;;;;;;;;;;;;;8.11;100.00;99294.38;4825501;29;20234;-68
2022/01/01 18:32:54;;;;;;;;;;;;;;;8.10;100.00;99294.72;4828153;29;19954;-67
2022/01/01 18:35:23;;;;;;;;;;;;;;;8.10;100.00;99301.09;4828105;29;19962;-69
2022/01/01 18:37:51;;;;;;;;;;;;;;;8.06;100.00;99302.19;4824673;29;19956;-69
2022/01/01 18:40:19;;;;;;;;;;;;;;;8.06;100.00;99305.78;4825813;29;20389;-68
2022/01/01 18:42:48;;;;;;;;;;;;;;;8.10;100.00;99311.44;4824481;29;19971;-68
2022/01/01 18:45:16;;;;;;;;;;;;;;;8.10;100.00;99309.47;4832422;29;19952;-72
2022/01/01 18:47:43;;;;;;;;;;;;;;;8.06;100.00;99308.56;4821759;29;20218;-68
2022/01/01 18:50:12;;;;;;;;;;;;;;;8.05;100.00;99311.69;4825217;29;19951;-68
2022/01/01 18:52:59;;;;;;;;;;;;;;;8.04;100.00;99315.66;4826005;29;19962;-69
2022/01/01 18:55:30;;;;;;;;;;;;;;;8.06;100.00;99321.69;4831037;29;19953;-68
2022/01/01 18:57:59;;;;;;;;;;;;;;;8.05;100.00;99320.88;4825032;29;19959;-68
2022/01/01 19:00:28;;;;;;;;;;;;;;;8.02;100.00;99312.44;4812655;29;19959;-69
2022/01/01 19:02:58;;;;;;;;;;;;;;;7.97;100.00;99321.03;4829958;29;20460;-68
2022/01/01 19:05:27;;;;;;;;;;;;;;;7.93;100.00;99318.16;4836927;29;20265;-68
2022/01/01 19:07:58;;;;;;;;;;;;;;;7.93;100.00;99320.94;4841849;29;19981;-68
2022/01/01 19:10:30;;;;;;;;;;;;;;;7.88;100.00;99324.78;4821030;29;19959;-68
2022/01/01 19:13:06;;;;;;;;;;;;;;;7.84;100.00;99329.47;4831462;29;20263;-68
2022/01/01 19:15:37;;;;;;;;;;;;;;;7.79;100.00;99329.72;4828358;29;19953;-68
2022/01/01 19:18:07;;;;;;;;;;;;;;;7.73;100.00;99325.53;4825313;29;21319;-69
2022/01/01 19:20:35;;;;;;;;;;;;;;;7.77;100.00;99325.66;4821627;29;19965;-68
2022/01/01 19:23:03;;;;;;;;;;;;;;;7.80;100.00;99331.31;4825211;29;19976;-68
2022/01/01 19:25:30;;;;;;;;;;;;;;;7.84;100.00;99335.03;4838287;29;19955;-68
2022/01/01 19:28:00;;;;;;;;;;;;;;;7.89;100.00;99347.88;4841501;29;19957;-68
2022/01/01 19:30:35;;;;;;;;;;;;;;;7.93;100.00;99348.78;4824153;29;20251;-67
2022/01/01 19:33:02;;;;;;;;;;;;;;;7.94;100.00;99347.63;4828707;29;20394;-67
2022/01/01 19:35:31;;;;;;;;;;;;;;;7.89;100.00;99350.66;4821511;29;20052;-68
2022/01/01 19:37:59;;;;;;;;;;;;;;;7.82;100.00;99347.69;4824472;29;20346;-68
2022/01/01 19:40:27;;;;;;;;;;;;;;;7.74;100.00;99354.19;4824951;29;19961;-68
2022/01/01 19:43:03;;;;;;;;;;;;;;;7.66;100.00;99350.41;4824245;29;20008;-68
2022/01/01 19:45:32;;;;;;;;;;;;;;;7.59;100.00;99341.84;4825159;29;19960;-68
2022/01/01 19:48:09;;;;;;;;;;;;;;;7.56;100.00;99347.28;4823960;29;19977;-68
2022/01/01 19:50:37;;;;;;;;;;;;;;;7.52;100.00;99351.94;4822497;29;19958;-68
2022/01/01 19:53:06;;;;;;;;;;;;;;;7.45;100.00;99344.22;4832221;29;19982;-68
2022/01/01 19:55:37;;;;;;;;;;;;;;;7.42;100.00;99344.91;4826768;29;20554;-69
2022/01/01 19:58:05;;;;;;;;;;;;;;;7.39;100.00;99344.78;4828628;29;20260;-69
2022/01/01 20:00:33;;;;;;;;;;;;;;;7.39;100.00;99342.00;4829667;29;19959;-68
2022/01/01 20:03:01;;;;;;;;;;;;;;;7.34;100.00;99340.28;4823156;29;20071;-68
2022/01/01 20:05:28;;;;;;;;;;;;;;;7.34;100.00;99339.47;4824904;29;19959;-69
2022/01/01 20:07:57;;;;;;;;;;;;;;;7.31;100.00;99335.44;4829462;29;19948;-69
2022/01/01 20:10:26;;;;;;;;;;;;;;;7.32;100.00;99336.22;4831424;29;19970;-68
2022/01/01 20:12:54;;;;;;;;;;;;;;;7.30;100.00;99347.72;4831177;29;19955;-68
2022/01/01 20:15:26;;;;;;;;;;;;;;;7.33;100.00;99344.25;4835029;29;19985;-68
2022/01/01 20:17:55;;;;;;;;;;;;;;;7.37;100.00;99349.91;4829890;29;19953;-67
2022/01/01 20:20:24;;;;;;;;;;;;;;;7.38;100.00;99345.97;4826665;29;20376;-68
2022/01/01 20:22:52;;;;;;;;;;;;;;;7.40;100.00;99349.19;4823007;29;19956;-68
2022/01/01 20:25:19;;;;;;;;;;;;;;;7.43;100.00;99346.53;4827633;29;19964;-68
2022/01/01 20:27:47;;;;;;;;;;;;;;;7.45;100.00;99348.94;4825071;29;19960;-67
2022/01/01 20:30:16;;;;;;;;;;;;;;;7.47;100.00;99343.84;4826658;29;19956;-68
2022/01/01 20:32:45;;;;;;;;;;;;;;;7.45;100.00;99348.94;4808885;29;19951;-68
2022/01/01 20:35:14;;;;;;;;;;;;;;;7.44;100.00;99350.91;4824522;29;19957;-67
2022/01/01 20:37:42;;;;;;;;;;;;;;;7.48;100.00;99348.25;4823777;29;20357;-67
2022/01/01 20:40:10;;;;;;;;;;;;;;;7.52;100.00;99341.63;4832318;29;19959;-68
2022/01/01 20:42:39;;;;;;;;;;;;;;;7.56;100.00;99336.97;4826085;29;19961;-68
2022/01/01 20:45:07;;;;;;;;;;;;;;;7.61;100.00;99338.69;4826717;29;19988;-68
2022/01/01 20:47:35;;;;;;;;;;;;;;;7.63;100.00;99342.75;4841659;29;19956;-68
2022/01/01 20:50:05;;;;;;;;;;;;;;;7.65;100.00;99336.84;4841780;29;19957;-69
2022/01/01 20:52:33;;;;;;;;;;;;;;;7.67;100.00;99342.84;4825604;29;19958;-68
2022/01/01 20:55:02;;;;;;;;;;;;;;;7.66;100.00;99344.81;4825994;29;19951;-68
2022/01/01 20:57:30;;;;;;;;;;;;;;;7.65;100.00;99346.00;4823904;29;19958;-68
2022/01/01 20:59:58;;;;;;;;;;;;;;;7.61;100.00;99338.69;4824152;29;19991;-68
2022/01/01 21:02:36;;;;;;;;;;;;;;;7.56;100.00;99338.94;4822070;29;19974;-68
2022/01/01 21:05:07;;;;;;;;;;;;;;;7.47;100.00;99332.72;4822463;29;19979;-69
2022/01/01 21:07:34;;;;;;;;;;;;;;;7.40;100.00;99341.66;4824428;29;19955;-68
2022/01/01 21:10:04;;;;;;;;;;;;;;;7.36;100.00;99331.59;4823180;29;19955;-69
2022/01/01 21:12:35;;;;;;;;;;;;;;;7.35;100.00;99329.97;4822440;29;20258;-69
2022/01/01 21:15:03;;;;;;;;;;;;;;;7.33;100.00;99333.09;4822014;29;19953;-68
2022/01/01 21:17:30;;;;;;;;;;;;;;;7.32;100.00;99334.25;4825432;29;19962;-69
2022/01/01 21:20:00;;;;;;;;;;;;;;;7.36;100.00;99326.03;4823389;29;19965;-68
2022/01/01 21:22:28;;;;;;;;;;;;;;;7.36;100.00;99315.69;4824548;29;19997;-68
2022/01/01 21:24:56;;;;;;;;;;;;;;;7.34;100.00;99311.63;4827289;29;19979;-68
2022/01/01 21:27:24;;;;;;;;;;;;;;;7.37;100.00;99320.09;4830473;29;19961;-68
2022/01/01 21:29:52;;;;;;;;;;;;;;;7.36;100.00;99314.91;4836146;29;19961;-68
2022/01/01 21:32:39;;;;;;;;;;;;;;;7.36;100.00;99320.47;4836101;29;20020;-68
2022/01/01 21:35:26;;;;;;;;;;;;;;;7.40;100.00;99319.41;4819570;29;19951;-68
2022/01/01 21:38:12;;;;;;;;;;;;;;;7.52;100.00;99324.13;4833060;29;19955;-68
2022/01/01 21:40:58;;;;;;;;;;;;;;;7.63;100.00;99333.59;4827880;29;19961;-68
2022/01/01 21:43:44;;;;;;;;;;;;;;;7.75;100.00;99333.56;4827645;29;19968;-69
2022/01/01 21:46:30;;;;;;;;;;;;;;;7.75;100.00;99345.47;4831928;29;19951;-68
2022/01/01 21:49:17;;;;;;;;;;;;;;;7.75;100.00;99345.47;4826189;29;19956;-69
2022/01/01 21:52:03;;;;;;;;;;;;;;;7.74;100.00;99351.41;4820286;29;19961;-68
2022/01/01 21:54:49;;;;;;;;;;;;;;;7.71;100.00;99355.72;4830002;29;19953;-68
2022/01/01 21:57:35;;;;;;;;;;;;;;;7.70;100.00;99356.09;4841174;29;19954;-68
2022/01/01 22:00:21;;;;;;;;;;;;;;;7.65;100.00;99362.72;4831108;29;19950;-68
2022/01/01 22:03:06;;;;;;;;;;;;;;;7.59;100.00;99366.88;4843280;29;19970;-68
2022/01/01 22:05:53;;;;;;;;;;;;;;;7.60;100.00;99362.13;4824572;29;19955;-69
2022/01/01 22:08:39;;;;;;;;;;;;;;;7.50;100.00;99370.97;4826380;29;19954;-68
2022/01/01 22:11:25;;;;;;;;;;;;;;;7.37;100.00;99370.19;4833378;29;19948;-68
2022/01/01 22:14:13;;;;;;;;;;;;;;;7.28;100.00;99364.78;4829396;29;19958;-68
2022/01/01 22:17:00;;;;;;;;;;;;;;;7.26;100.00;99371.84;4823466;29;19959;-68